Time;durP1;ratioP1;P1;durP2;ratioP2;P2;SDS_P1;SDS_P2;PMS_P1;PMS_P2;Temp;Humidity;BMP_temperature;BMP_pressure;BME280_temperature;BME280_humidity;BME280_pressure;Samples;Min_cycle;Max_cycle;Signal;HPM_P1;HPM_P2
2022/07/26 00:01:03;;;;;;;9.30;5.30;;;19.40;99.90;;;;;;5013352;28;20395;-63
2022/07/26 00:03:29;;;;;;;7.70;4.47;;;19.30;99.90;;;;;;5012498;28;20240;-62
2022/07/26 00:05:54;;;;;;;5.00;4.40;;;19.30;99.90;;;;;;5012326;28;20893;-62
2022/07/26 00:08:20;;;;;;;4.73;3.90;;;19.30;99.90;;;;;;5012526;28;20642;-62
2022/07/26 00:10:48;;;;;;;5.00;4.50;;;19.20;99.90;;;;;;5012541;28;20169;-62
2022/07/26 00:13:16;;;;;;;5.97;4.47;;;19.10;99.90;;;;;;5012257;28;20215;-63
2022/07/26 00:15:43;;;;;;;5.37;4.30;;;19.00;99.90;;;;;;5012043;28;20918;-65
2022/07/26 00:18:09;;;;;;;6.50;3.70;;;19.00;99.90;;;;;;5012040;28;20774;-63
2022/07/26 00:20:35;;;;;;;7.87;4.20;;;19.00;99.90;;;;;;5012071;28;20403;-63
2022/07/26 00:23:01;;;;;;;4.40;3.93;;;18.90;99.90;;;;;;5012197;28;20892;-63
2022/07/26 00:25:27;;;;;;;6.40;4.10;;;18.90;99.90;;;;;;5011633;28;20400;-63
2022/07/26 00:27:53;;;;;;;12.43;4.97;;;18.80;99.90;;;;;;5011965;28;20412;-63
2022/07/26 00:30:19;;;;;;;6.90;4.77;;;18.90;99.90;;;;;;5011850;28;20434;-63
2022/07/26 00:32:45;;;;;;;6.10;4.77;;;18.80;99.90;;;;;;5011515;28;21042;-63
2022/07/26 00:35:10;;;;;;;5.00;4.50;;;18.80;99.90;;;;;;5011457;28;20179;-63
2022/07/26 00:37:37;;;;;;;4.30;3.90;;;18.90;99.90;;;;;;5011792;28;20168;-63
2022/07/26 00:40:04;;;;;;;5.50;4.63;;;18.90;99.90;;;;;;5011837;28;20434;-63
2022/07/26 00:42:29;;;;;;;7.93;5.20;;;18.90;99.90;;;;;;5011503;28;20411;-63
2022/07/26 00:44:55;;;;;;;6.53;5.30;;;18.80;99.90;;;;;;5011180;28;20413;-63
2022/07/26 00:47:21;;;;;;;5.87;4.87;;;18.80;99.90;;;;;;5011508;28;20603;-63
2022/07/26 00:49:46;;;;;;;9.90;5.40;;;18.80;99.90;;;;;;5011562;28;20222;-62
2022/07/26 00:52:13;;;;;;;6.53;4.57;;;18.90;99.90;;;;;;5011324;28;20279;-63
2022/07/26 00:54:42;;;;;;;6.27;5.67;;;18.90;99.90;;;;;;5011026;28;20267;-62
2022/07/26 00:57:08;;;;;;;9.60;6.23;;;18.80;99.90;;;;;;5011157;28;20418;-63
2022/07/26 00:59:33;;;;;;;8.13;5.20;;;18.90;99.90;;;;;;5011069;28;20435;-62
2022/07/26 01:02:02;;;;;;;5.03;4.50;;;18.80;99.90;;;;;;5011413;28;20211;-63
2022/07/26 01:04:27;;;;;;;8.83;4.50;;;18.80;99.90;;;;;;5011147;28;20176;-63
2022/07/26 01:06:53;;;;;;;7.27;5.10;;;18.80;99.90;;;;;;5011266;28;20432;-63
2022/07/26 01:09:19;;;;;;;9.10;5.57;;;18.80;99.90;;;;;;5019040;23;20315;-76
2022/07/26 01:11:45;;;;;;;6.30;5.53;;;18.90;99.90;;;;;;4991990;28;20204;-75
2022/07/26 01:14:10;;;;;;;5.50;4.80;;;18.80;99.90;;;;;;4994943;28;20173;-75
2022/07/26 01:16:36;;;;;;;7.53;6.47;;;18.90;99.90;;;;;;4999012;28;20233;-76
2022/07/26 01:19:02;;;;;;;5.97;5.10;;;18.90;99.90;;;;;;4994008;28;20228;-76
2022/07/26 01:21:32;;;;;;;7.53;5.77;;;18.90;99.90;;;;;;4993582;28;20722;-76
2022/07/26 01:23:57;;;;;;;5.20;4.70;;;18.90;99.90;;;;;;4993380;28;20494;-75
2022/07/26 01:26:23;;;;;;;5.97;4.40;;;19.00;99.90;;;;;;4993262;28;20450;-75
2022/07/26 01:28:48;;;;;;;5.53;5.13;;;19.00;99.90;;;;;;4993219;28;20680;-75
2022/07/26 01:31:14;;;;;;;12.00;5.37;;;19.00;99.90;;;;;;4993475;28;20592;-75
2022/07/26 01:33:41;;;;;;;6.27;5.43;;;19.10;99.90;;;;;;4993176;28;20294;-73
2022/07/26 01:36:07;;;;;;;6.83;5.20;;;19.00;99.90;;;;;;4992639;28;20445;-73
2022/07/26 01:38:33;;;;;;;5.10;4.60;;;19.10;99.90;;;;;;4993110;28;20412;-74
2022/07/26 01:40:59;;;;;;;4.90;4.10;;;19.10;99.90;;;;;;4992804;28;20405;-74
2022/07/26 01:43:25;;;;;;;7.00;6.03;;;19.10;99.90;;;;;;4991400;28;20584;-73
2022/07/26 01:45:51;;;;;;;7.23;5.70;;;19.10;99.90;;;;;;4991856;28;20567;-73
2022/07/26 01:48:17;;;;;;;6.20;5.17;;;19.10;99.90;;;;;;4988678;28;20558;-73
2022/07/26 01:50:42;;;;;;;6.50;5.90;;;19.00;99.90;;;;;;4992524;28;20528;-73
2022/07/26 01:53:08;;;;;;;5.87;5.27;;;19.00;99.90;;;;;;4992227;28;20455;-73
2022/07/26 01:55:34;;;;;;;5.57;5.07;;;19.00;99.90;;;;;;4992378;28;20256;-74
2022/07/26 01:58:00;;;;;;;6.30;5.03;;;19.00;99.90;;;;;;4992846;28;20173;-73
2022/07/26 02:00:25;;;;;;;8.77;5.63;;;19.00;99.90;;;;;;4992208;28;20584;-73
2022/07/26 02:02:51;;;;;;;9.83;9.00;;;19.00;99.90;;;;;;4996748;28;20251;-72
2022/07/26 02:05:16;;;;;;;6.97;5.90;;;19.00;99.90;;;;;;4995501;28;20274;-73
2022/07/26 02:07:42;;;;;;;6.57;5.97;;;19.00;99.90;;;;;;4992439;28;20622;-73
2022/07/26 02:10:10;;;;;;;6.70;5.90;;;18.90;99.90;;;;;;4992261;28;20201;-73
2022/07/26 02:12:36;;;;;;;6.90;5.73;;;18.90;99.90;;;;;;4992563;28;20459;-74
2022/07/26 02:15:04;;;;;;;7.70;6.27;;;18.90;99.90;;;;;;4992354;28;20466;-74
2022/07/26 02:17:29;;;;;;;8.20;6.93;;;19.00;99.90;;;;;;4992489;28;20412;-74
2022/07/26 02:19:55;;;;;;;7.47;6.70;;;19.00;99.90;;;;;;4992893;28;20432;-74
2022/07/26 02:22:20;;;;;;;8.13;7.33;;;19.10;99.90;;;;;;4992303;28;20248;-74
2022/07/26 02:24:47;;;;;;;9.17;6.90;;;19.00;99.90;;;;;;4991969;28;20551;-74
2022/07/26 02:27:12;;;;;;;8.97;7.13;;;19.00;99.90;;;;;;4992576;28;20173;-74
2022/07/26 02:29:38;;;;;;;7.73;6.53;;;19.00;99.90;;;;;;4992264;28;20936;-74
2022/07/26 02:32:05;;;;;;;7.67;6.87;;;19.00;99.90;;;;;;4992087;28;20237;-74
2022/07/26 02:34:30;;;;;;;7.17;6.47;;;19.00;99.90;;;;;;4992277;28;20527;-74
2022/07/26 02:36:56;;;;;;;9.10;7.40;;;18.90;99.90;;;;;;4993246;28;20483;-73
2022/07/26 02:39:26;;;;;;;6.30;5.63;;;18.80;99.90;;;;;;4992156;28;20197;-73
2022/07/26 02:41:52;;;;;;;9.70;7.47;;;18.70;99.90;;;;;;4992284;28;20666;-73
2022/07/26 02:44:18;;;;;;;8.20;5.93;;;18.70;99.90;;;;;;4992051;28;20508;-74
2022/07/26 02:46:44;;;;;;;7.23;6.40;;;18.70;99.90;;;;;;4991735;28;20501;-73
2022/07/26 02:49:09;;;;;;;9.30;7.93;;;18.70;99.90;;;;;;4991603;28;20204;-74
2022/07/26 02:51:35;;;;;;;7.83;6.40;;;18.60;99.90;;;;;;4991964;28;20181;-73
2022/07/26 02:54:00;;;;;;;6.40;5.80;;;18.60;99.90;;;;;;4991917;28;20173;-73
2022/07/26 02:56:26;;;;;;;7.90;5.90;;;18.50;99.90;;;;;;4992382;28;20258;-73
2022/07/26 02:58:51;;;;;;;11.50;6.47;;;18.50;99.90;;;;;;4995749;28;20192;-73
2022/07/26 03:01:17;;;;;;;7.40;6.70;;;18.50;99.90;;;;;;4997731;28;20174;-73
2022/07/26 03:03:43;;;;;;;7.50;5.47;;;18.50;99.90;;;;;;5000477;28;20169;-73
2022/07/26 03:06:08;;;;;;;8.27;7.20;;;18.40;99.90;;;;;;4995235;28;20179;-73
2022/07/26 03:08:33;;;;;;;6.90;6.20;;;18.30;99.90;;;;;;4995437;28;20212;-74
2022/07/26 03:10:59;;;;;;;7.67;5.27;;;18.40;99.90;;;;;;4995236;28;20187;-73
2022/07/26 03:13:25;;;;;;;9.00;6.20;;;18.30;99.90;;;;;;4993889;28;20702;-73
2022/07/26 03:15:50;;;;;;;7.63;6.20;;;18.30;99.90;;;;;;4994986;28;20165;-75
2022/07/26 03:18:16;;;;;;;17.30;11.53;;;18.40;99.90;;;;;;4995216;28;20183;-74
2022/07/26 03:20:41;;;;;;;10.63;7.50;;;18.30;99.90;;;;;;4995030;28;20200;-73
2022/07/26 03:23:07;;;;;;;12.70;9.43;;;18.30;99.90;;;;;;4995124;28;20288;-73
2022/07/26 03:25:33;;;;;;;7.90;7.10;;;18.30;99.90;;;;;;4994812;28;20216;-74
2022/07/26 03:27:58;;;;;;;14.97;8.90;;;18.30;99.90;;;;;;4995194;28;20626;-73
2022/07/26 03:30:24;;;;;;;8.40;7.47;;;18.30;99.90;;;;;;4994872;28;20200;-73
2022/07/26 03:32:50;;;;;;;7.53;6.73;;;18.40;99.90;;;;;;4995041;28;20196;-73
2022/07/26 03:35:15;;;;;;;14.40;8.93;;;18.30;99.90;;;;;;4995061;28;20179;-73
2022/07/26 03:37:41;;;;;;;7.77;7.03;;;18.30;99.90;;;;;;4994919;28;20168;-73
2022/07/26 03:40:07;;;;;;;7.03;6.20;;;18.30;99.90;;;;;;4994904;28;20250;-74
2022/07/26 03:42:34;;;;;;;13.10;6.90;;;18.30;99.90;;;;;;4995164;28;20250;-74
2022/07/26 03:45:00;;;;;;;7.90;6.03;;;18.40;99.90;;;;;;4994523;28;20434;-74
2022/07/26 03:47:26;;;;;;;5.90;5.20;;;18.40;99.90;;;;;;4993408;28;20414;-73
2022/07/26 03:49:51;;;;;;;5.17;4.67;;;18.40;99.90;;;;;;4994792;28;20788;-73
2022/07/26 03:52:17;;;;;;;5.37;4.87;;;18.30;99.90;;;;;;4994605;28;20255;-73
2022/07/26 03:54:43;;;;;;;5.00;4.53;;;18.30;99.90;;;;;;4994392;28;20226;-73
2022/07/26 03:57:08;;;;;;;6.57;4.93;;;18.30;99.90;;;;;;4994762;28;20539;-73
2022/07/26 03:59:34;;;;;;;12.93;8.40;;;18.30;99.90;;;;;;4994363;28;20212;-73
2022/07/26 04:01:59;;;;;;;4.47;4.07;;;18.40;99.90;;;;;;5009415;28;20578;-73
2022/07/26 04:04:25;;;;;;;15.27;9.70;;;18.40;99.90;;;;;;4994313;28;20171;-73
2022/07/26 04:06:50;;;;;;;5.10;4.07;;;18.40;99.90;;;;;;4994294;28;20171;-73
2022/07/26 04:09:16;;;;;;;5.63;5.00;;;18.40;99.90;;;;;;4993332;28;20306;-75
2022/07/26 04:11:42;;;;;;;3.50;3.10;;;18.40;99.90;;;;;;4994264;28;20176;-73
2022/07/26 04:14:08;;;;;;;6.00;4.10;;;18.30;99.90;;;;;;4993925;28;20255;-73
2022/07/26 04:16:34;;;;;;;4.40;3.90;;;18.40;99.90;;;;;;4993884;28;20841;-73
2022/07/26 04:19:00;;;;;;;5.03;4.27;;;18.40;99.90;;;;;;4994014;28;20464;-74
2022/07/26 04:21:25;;;;;;;4.07;3.77;;;18.40;99.90;;;;;;4994046;28;20595;-74
2022/07/26 04:23:51;;;;;;;6.90;3.90;;;18.40;99.90;;;;;;4994294;28;20639;-74
2022/07/26 04:26:18;;;;;;;4.30;3.43;;;18.40;99.90;;;;;;4994224;28;20236;-75
2022/07/26 04:28:43;;;;;;;6.07;3.73;;;18.50;99.90;;;;;;4994203;28;20550;-75
2022/07/26 04:31:09;;;;;;;3.70;3.10;;;18.50;99.90;;;;;;4993998;28;20953;-74
2022/07/26 04:33:34;;;;;;;6.67;4.50;;;18.50;99.90;;;;;;4993634;28;20193;-74
2022/07/26 04:36:02;;;;;;;4.37;3.73;;;18.60;99.90;;;;;;4993857;28;20172;-74
2022/07/26 04:38:27;;;;;;;3.50;3.17;;;18.60;99.90;;;;;;4993793;28;20171;-74
2022/07/26 04:40:54;;;;;;;3.83;2.90;;;18.60;99.90;;;;;;4993687;28;20412;-74
2022/07/26 04:43:20;;;;;;;3.33;3.07;;;18.50;99.90;;;;;;4993589;28;20242;-74
2022/07/26 04:45:46;;;;;;;3.30;2.70;;;18.60;99.90;;;;;;4994177;28;20868;-74
2022/07/26 04:48:12;;;;;;;4.23;3.40;;;18.60;99.90;;;;;;4995971;28;20189;-74
2022/07/26 04:50:38;;;;;;;7.13;2.87;;;18.70;99.90;;;;;;5002169;28;20203;-75
2022/07/26 04:53:03;;;;;;;2.97;2.50;;;18.70;99.90;;;;;;4994181;28;20825;-74
2022/07/26 04:55:29;;;;;;;3.57;3.27;;;18.90;99.90;;;;;;4993254;28;20172;-75
2022/07/26 04:57:54;;;;;;;4.30;3.60;;;18.90;99.90;;;;;;4993409;28;20253;-74
2022/07/26 05:00:23;;;;;;;6.30;3.17;;;19.00;99.90;;;;;;4993320;28;20194;-76
2022/07/26 05:02:51;;;;;;;6.60;3.80;;;19.10;99.90;;;;;;4993250;28;20170;-74
2022/07/26 05:05:17;;;;;;;3.90;3.50;;;19.20;99.90;;;;;;4992955;28;20492;-74
2022/07/26 05:07:44;;;;;;;3.10;2.80;;;19.30;99.90;;;;;;4993333;28;20510;-74
2022/07/26 05:10:11;;;;;;;4.70;3.60;;;19.40;99.90;;;;;;4993409;28;20397;-74
2022/07/26 05:12:37;;;;;;;9.03;4.50;;;19.60;99.90;;;;;;4993301;28;20459;-74
2022/07/26 05:15:04;;;;;;;3.77;3.30;;;19.80;99.90;;;;;;4993040;28;20412;-74
2022/07/26 05:17:29;;;;;;;2.87;2.53;;;19.70;99.90;;;;;;4993311;28;20883;-74
2022/07/26 05:19:55;;;;;;;4.07;3.03;;;19.60;99.90;;;;;;4993624;28;20429;-74
2022/07/26 05:22:20;;;;;;;3.37;2.97;;;19.80;99.90;;;;;;4993715;28;20270;-75
2022/07/26 05:24:46;;;;;;;5.17;2.53;;;19.70;99.90;;;;;;4993164;28;20274;-75
2022/07/26 05:27:11;;;;;;;3.90;2.40;;;19.60;99.90;;;;;;4991930;28;20174;-75
2022/07/26 05:29:37;;;;;;;3.03;2.63;;;19.80;99.90;;;;;;4993245;28;20196;-75
2022/07/26 05:32:03;;;;;;;2.80;2.20;;;20.20;99.90;;;;;;4993063;28;20209;-74
2022/07/26 05:34:28;;;;;;;5.53;2.97;;;20.40;99.90;;;;;;4993837;28;20170;-74
2022/07/26 05:36:54;;;;;;;5.80;3.10;;;20.70;99.90;;;;;;4994846;28;20176;-75
2022/07/26 05:39:19;;;;;;;3.27;2.60;;;21.10;99.90;;;;;;4995683;28;20197;-75
2022/07/26 05:41:45;;;;;;;4.60;2.33;;;21.50;99.90;;;;;;4997735;28;20206;-74
2022/07/26 05:44:10;;;;;;;3.20;2.30;;;21.20;99.90;;;;;;4992955;28;20165;-73
2022/07/26 05:46:36;;;;;;;7.07;2.60;;;20.90;99.90;;;;;;5007513;28;20281;-73
2022/07/26 05:49:03;;;;;;;4.30;2.60;;;21.00;99.90;;;;;;4992839;28;20197;-74
2022/07/26 05:51:29;;;;;;;6.20;2.70;;;20.80;99.90;;;;;;4993363;28;20164;-74
2022/07/26 05:53:55;;;;;;;3.63;2.23;;;21.40;99.90;;;;;;4992603;28;20458;-73
2022/07/26 05:56:21;;;;;;;5.67;2.57;;;21.40;99.90;;;;;;4992733;28;20469;-74
2022/07/26 05:58:47;;;;;;;3.47;2.00;;;21.90;99.90;;;;;;4992614;28;20949;-74
2022/07/26 06:01:13;;;;;;;3.30;1.57;;;21.80;99.90;;;;;;5008015;28;20178;-74
2022/07/26 06:03:38;;;;;;;2.20;2.00;;;22.30;99.90;;;;;;4992550;28;20167;-74
2022/07/26 06:06:04;;;;;;;2.87;1.70;;;22.20;99.90;;;;;;4992462;28;20176;-74
2022/07/26 06:08:30;;;;;;;5.90;3.40;;;22.00;99.90;;;;;;4992630;28;20210;-74
2022/07/26 06:10:55;;;;;;;4.37;2.30;;;23.20;99.90;;;;;;4992352;28;20195;-74
2022/07/26 06:13:21;;;;;;;2.73;2.30;;;23.00;99.90;;;;;;4992380;28;20192;-74
2022/07/26 06:15:47;;;;;;;3.20;2.17;;;23.50;99.90;;;;;;4992330;28;20250;-74
2022/07/26 06:18:13;;;;;;;4.90;2.83;;;23.80;99.90;;;;;;4992645;28;20171;-74
2022/07/26 06:20:43;;;;;;;4.70;2.87;;;23.40;99.90;;;;;;4992422;28;20256;-74
2022/07/26 06:23:13;;;;;;;3.27;1.90;;;24.10;99.90;;;;;;4992621;28;20168;-74
2022/07/26 06:25:39;;;;;;;6.43;3.50;;;23.50;99.90;;;;;;4992497;28;20921;-74
2022/07/26 06:28:07;;;;;;;4.00;2.00;;;25.00;99.90;;;;;;4992527;28;20450;-74
2022/07/26 06:30:33;;;;;;;4.23;2.10;;;24.70;99.90;;;;;;4993090;28;20423;-75
2022/07/26 06:32:59;;;;;;;5.10;2.30;;;24.50;99.90;;;;;;4995890;28;20488;-75
2022/07/26 06:35:29;;;;;;;3.63;1.93;;;25.30;99.90;;;;;;4998544;28;21018;-75
2022/07/26 06:37:55;;;;;;;6.17;3.70;;;24.00;99.90;;;;;;5001056;28;20226;-75
2022/07/26 06:40:21;;;;;;;7.97;5.50;;;24.40;99.90;;;;;;4995927;28;20436;-73
2022/07/26 06:42:47;;;;;;;2.83;2.23;;;23.90;99.90;;;;;;4996247;28;20419;-74
2022/07/26 06:45:12;;;;;;;3.83;2.60;;;24.60;99.90;;;;;;4993760;28;20173;-74
2022/07/26 06:47:38;;;;;;;2.27;1.93;;;24.20;99.90;;;;;;4976004;28;20177;-75
2022/07/26 06:50:04;;;;;;;4.00;3.47;;;24.80;99.90;;;;;;4976429;28;20192;-75
2022/07/26 06:52:31;;;;;;;2.83;1.57;;;25.10;99.90;;;;;;4976358;28;20200;-75
2022/07/26 06:54:58;;;;;;;4.20;1.80;;;25.80;99.90;;;;;;4975927;28;20413;-75
2022/07/26 06:57:23;;;;;;;4.47;2.20;;;24.80;99.90;;;;;;4976109;28;20497;-75
2022/07/26 06:59:49;;;;;;;2.10;1.83;;;24.00;99.90;;;;;;4976314;28;20500;-75
2022/07/26 07:02:14;;;;;;;4.93;2.27;;;24.80;99.90;;;;;;4988185;28;20543;-75
2022/07/26 07:04:40;;;;;;;2.70;1.50;;;25.60;99.90;;;;;;4991861;28;20249;-74
2022/07/26 07:07:07;;;;;;;4.00;1.50;;;24.60;99.90;;;;;;4975880;28;20180;-74
2022/07/26 07:09:33;;;;;;;3.73;1.37;;;23.90;99.90;;;;;;4976390;28;20215;-75
2022/07/26 07:12:01;;;;;;;2.40;1.37;;;24.50;99.90;;;;;;4979857;28;20504;-73
2022/07/26 07:14:26;;;;;;;2.80;1.40;;;24.90;99.90;;;;;;4995484;28;20400;-74
2022/07/26 07:16:52;;;;;;;2.43;1.77;;;25.20;99.90;;;;;;4994963;28;20410;-75
2022/07/26 07:19:17;;;;;;;2.70;1.90;;;25.60;99.90;;;;;;4977433;28;20193;-75
2022/07/26 07:21:43;;;;;;;2.10;1.90;;;25.20;99.90;;;;;;4977400;28;20162;-74
2022/07/26 07:24:09;;;;;;;2.50;1.60;;;26.20;99.90;;;;;;4995114;28;20161;-74
2022/07/26 07:26:34;;;;;;;4.10;1.63;;;26.20;99.90;;;;;;4994970;28;20168;-74
2022/07/26 07:29:00;;;;;;;3.80;2.20;;;24.80;99.90;;;;;;4995008;28;20191;-74
2022/07/26 07:31:25;;;;;;;1.90;1.53;;;24.80;99.90;;;;;;4995086;28;20176;-74
2022/07/26 07:33:51;;;;;;;5.27;2.13;;;24.80;99.90;;;;;;4994779;28;20197;-74
2022/07/26 07:36:16;;;;;;;6.73;4.30;;;25.70;99.90;;;;;;4977587;28;20668;-74
2022/07/26 07:38:45;;;;;;;3.17;1.90;;;25.60;99.90;;;;;;4975263;28;20192;-73
2022/07/26 07:41:11;;;;;;;2.70;1.27;;;25.70;99.90;;;;;;4975636;28;20290;-73
2022/07/26 07:43:36;;;;;;;5.03;1.70;;;25.70;99.90;;;;;;4974246;28;20437;-75
2022/07/26 07:46:03;;;;;;;2.63;1.20;;;25.30;99.90;;;;;;4975057;28;20220;-74
2022/07/26 07:48:29;;;;;;;3.43;2.73;;;24.90;99.90;;;;;;4975112;28;20166;-73
2022/07/26 07:50:54;;;;;;;7.63;2.03;;;25.70;99.90;;;;;;4975545;28;20751;-72
2022/07/26 07:53:20;;;;;;;6.63;2.13;;;26.30;99.90;;;;;;4974035;28;20280;-73
2022/07/26 07:55:45;;;;;;;2.37;1.60;;;25.60;99.90;;;;;;4975512;28;20232;-76
2022/07/26 07:58:11;;;;;;;5.83;3.43;;;24.50;99.90;;;;;;4975644;28;20249;-74
2022/07/26 08:00:37;;;;;;;2.23;1.70;;;25.80;99.90;;;;;;4977176;28;20186;-72
2022/07/26 08:03:02;;;;;;;2.40;1.33;;;25.90;99.90;;;;;;4994339;28;20181;-74
2022/07/26 08:05:28;;;;;;;9.83;1.80;;;26.40;99.90;;;;;;4994005;28;20196;-73
2022/07/26 08:07:53;;;;;;;2.93;1.40;;;26.50;99.90;;;;;;4994343;28;20168;-72
2022/07/26 08:10:19;;;;;;;9.03;7.03;;;26.30;99.90;;;;;;4993758;28;20213;-72
2022/07/26 08:12:44;;;;;;;8.73;7.60;;;26.10;99.90;;;;;;4994209;28;20200;-72
2022/07/26 08:15:10;;;;;;;2.03;1.50;;;25.70;99.90;;;;;;4993959;28;20181;-72
2022/07/26 08:17:36;;;;;;;5.43;4.57;;;25.20;99.90;;;;;;4994225;28;20526;-72
2022/07/26 08:20:02;;;;;;;1.97;1.20;;;25.40;99.90;;;;;;4994342;28;20420;-72
2022/07/26 08:22:28;;;;;;;4.50;3.40;;;24.30;99.90;;;;;;4996109;28;20169;-74
2022/07/26 08:24:53;;;;;;;6.27;4.80;;;24.60;99.90;;;;;;5001590;28;20454;-72
2022/07/26 08:27:19;;;;;;;2.10;1.90;;;24.20;99.90;;;;;;4994623;28;20190;-77
2022/07/26 08:29:44;;;;;;;3.50;1.87;;;23.70;99.90;;;;;;4994067;28;20195;-73
2022/07/26 08:32:10;;;;;;;1.97;1.20;;;23.40;99.90;;;;;;4994258;28;20200;-71
2022/07/26 08:34:36;;;;;;;2.23;1.30;;;23.10;99.90;;;;;;4993062;28;20216;-72
2022/07/26 08:37:01;;;;;;;2.20;1.40;;;22.90;99.90;;;;;;4974699;28;20200;-73
2022/07/26 08:39:27;;;;;;;2.37;1.40;;;23.10;99.90;;;;;;4974729;28;20726;-74
2022/07/26 08:41:52;;;;;;;1.40;1.20;;;23.50;99.90;;;;;;4974886;28;20172;-74
2022/07/26 08:44:18;;;;;;;3.00;1.90;;;23.40;99.90;;;;;;4974756;28;20197;-73
2022/07/26 08:46:44;;;;;;;1.30;1.20;;;23.30;99.90;;;;;;4974456;28;20634;-73
2022/07/26 08:49:10;;;;;;;3.67;1.67;;;22.90;99.90;;;;;;4974228;28;20259;-73
2022/07/26 08:51:39;;;;;;;2.67;1.20;;;22.80;99.90;;;;;;4974382;28;20172;-73
2022/07/26 08:54:05;;;;;;;2.23;1.20;;;22.80;99.90;;;;;;4973841;28;20429;-74
2022/07/26 08:56:32;;;;;;;2.00;1.33;;;22.80;99.90;;;;;;4973866;28;20953;-73
2022/07/26 08:58:58;;;;;;;1.73;1.27;;;22.80;99.90;;;;;;4974255;28;20918;-72
2022/07/26 09:01:23;;;;;;;7.63;1.60;;;22.80;99.90;;;;;;4973850;28;20403;-73
2022/07/26 09:03:49;;;;;;;2.00;1.33;;;23.00;99.90;;;;;;4992959;28;20183;-73
2022/07/26 09:06:17;;;;;;;1.73;1.20;;;23.10;99.90;;;;;;4993030;28;20177;-72
2022/07/26 09:08:46;;;;;;;6.80;6.13;;;23.30;99.90;;;;;;4993107;28;20175;-73
2022/07/26 09:11:23;;;;;;;2.00;1.20;;;23.70;99.90;;;;;;4993481;28;20416;-73
2022/07/26 09:13:53;;;;;;;3.40;1.63;;;23.90;99.90;;;;;;4993345;28;20810;-72
2022/07/26 09:16:19;;;;;;;4.30;2.77;;;24.90;99.90;;;;;;4992913;28;20793;-72
2022/07/26 09:18:45;;;;;;;2.20;1.50;;;25.10;99.90;;;;;;4992947;28;21045;-71
2022/07/26 09:21:46;;;;;;;3.23;1.57;;;25.20;99.90;;;;;;4993411;28;20428;-71
2022/07/26 09:24:11;;;;;;;1.50;1.20;;;25.20;99.90;;;;;;4913782;29;20329;-72
2022/07/26 09:26:37;;;;;;;2.67;1.30;;;24.80;99.90;;;;;;4976517;28;20471;-72
2022/07/26 09:29:08;;;;;;;1.70;1.20;;;24.50;99.90;;;;;;4992517;28;20557;-71
2022/07/26 09:31:35;;;;;;;1.67;1.10;;;24.20;99.90;;;;;;4992862;28;20569;-71
2022/07/26 09:34:01;;;;;;;1.07;0.90;;;24.60;99.90;;;;;;4992756;28;20475;-75
2022/07/26 09:36:27;;;;;;;1.47;1.30;;;24.80;99.90;;;;;;4992524;28;20416;-74
2022/07/26 09:38:57;;;;;;;2.33;1.03;;;24.70;99.90;;;;;;4992466;28;20246;-74
2022/07/26 09:41:32;;;;;;;1.53;1.13;;;23.60;99.90;;;;;;4992445;28;20422;-73
2022/07/26 09:44:01;;;;;;;6.70;1.43;;;23.60;99.90;;;;;;4992748;28;20443;-74
2022/07/26 09:46:28;;;;;;;4.50;1.30;;;24.00;99.90;;;;;;4992701;28;20422;-74
2022/07/26 09:48:55;;;;;;;1.50;1.40;;;24.00;99.90;;;;;;4992028;28;20445;-74
2022/07/26 09:51:42;;;;;;;3.10;1.60;;;25.70;99.90;;;;;;4992464;28;20981;-74
2022/07/26 09:54:10;;;;;;;1.70;1.20;;;25.00;99.90;;;;;;4992497;28;20403;-73
2022/07/26 09:56:49;;;;;;;1.30;1.20;;;25.00;99.90;;;;;;4991980;28;20404;-73
2022/07/26 09:59:17;;;;;;;1.47;1.10;;;25.10;99.90;;;;;;4992173;28;20510;-73
2022/07/26 10:01:43;;;;;;;1.83;1.60;;;25.80;99.90;;;;;;4992028;28;20758;-73
2022/07/26 10:04:09;;;;;;;1.93;1.30;;;25.20;99.90;;;;;;4991980;28;20487;-73
2022/07/26 10:06:35;;;;;;;1.57;1.10;;;24.70;99.90;;;;;;4992672;28;20175;-74
2022/07/26 10:09:02;;;;;;;1.60;1.27;;;24.60;99.90;;;;;;4995708;28;21067;-74
2022/07/26 10:11:35;;;;;;;1.57;1.10;;;24.20;99.90;;;;;;5005526;28;20196;-73
2022/07/26 10:14:39;;;;;;;2.70;1.10;;;24.30;99.90;;;;;;4996729;28;20458;-73
2022/07/26 10:17:39;;;;;;;1.60;1.30;;;24.30;99.90;;;;;;4995773;28;20405;-73
2022/07/26 10:20:07;;;;;;;2.40;1.30;;;24.50;99.90;;;;;;4963545;28;20697;-73
2022/07/26 10:22:45;;;;;;;3.80;1.60;;;24.80;99.90;;;;;;4995937;28;20432;-74
2022/07/26 10:25:16;;;;;;;1.30;1.00;;;25.20;99.90;;;;;;4995505;28;20405;-73
2022/07/26 10:27:44;;;;;;;6.97;2.23;;;25.20;99.90;;;;;;4995633;28;20405;-74
2022/07/26 10:30:19;;;;;;;1.13;1.03;;;24.80;99.90;;;;;;4995734;28;20939;-74
2022/07/26 10:32:50;;;;;;;2.10;1.33;;;24.80;99.90;;;;;;4995797;28;20448;-74
2022/07/26 10:35:54;;;;;;;2.13;1.00;;;25.20;99.90;;;;;;4995426;28;20407;-73
2022/07/26 10:38:25;;;;;;;3.40;1.40;;;25.10;99.90;;;;;;4995861;28;20406;-73
2022/07/26 10:40:54;;;;;;;2.87;1.37;;;25.00;99.90;;;;;;4995681;28;20438;-74
2022/07/26 10:43:19;;;;;;;2.20;0.90;;;24.60;99.90;;;;;;4995969;28;20431;-75
2022/07/26 10:45:45;;;;;;;2.17;1.30;;;24.10;99.90;;;;;;4995531;28;20423;-74
2022/07/26 10:48:22;;;;;;;2.43;1.20;;;23.70;99.90;;;;;;4995682;28;20188;-74
2022/07/26 10:50:51;;;;;;;2.50;1.30;;;23.70;99.90;;;;;;4995713;28;20268;-74
2022/07/26 10:53:24;;;;;;;1.90;1.03;;;24.30;99.90;;;;;;4995582;28;20553;-74
2022/07/26 10:55:53;;;;;;;5.47;3.00;;;24.90;99.90;;;;;;4995448;28;20423;-76
2022/07/26 10:58:20;;;;;;;5.30;1.27;;;25.60;99.90;;;;;;4995673;28;20446;-75
2022/07/26 11:01:00;;;;;;;1.60;1.50;;;25.50;99.90;;;;;;4995781;28;20428;-74
2022/07/26 11:03:40;;;;;;;1.40;1.30;;;25.50;99.90;;;;;;4995393;28;20453;-74
2022/07/26 11:06:18;;;;;;;1.53;1.30;;;25.40;99.90;;;;;;4995352;28;20894;-74
2022/07/26 11:08:47;;;;;;;1.67;1.37;;;25.60;99.90;;;;;;4995090;28;20413;-74
2022/07/26 11:11:13;;;;;;;1.87;1.30;;;25.80;99.90;;;;;;4995307;28;20424;-75
2022/07/26 11:13:39;;;;;;;3.73;1.50;;;25.90;99.90;;;;;;4993495;28;20470;-75
2022/07/26 11:16:07;;;;;;;7.63;4.80;;;26.20;99.90;;;;;;4995038;28;20448;-74
2022/07/26 11:18:35;;;;;;;9.47;7.00;;;26.30;99.90;;;;;;4994383;28;20405;-73
2022/07/26 11:21:12;;;;;;;1.73;1.63;;;26.40;99.90;;;;;;4994954;28;20450;-73
2022/07/26 11:23:41;;;;;;;4.43;2.40;;;26.20;99.90;;;;;;4994530;28;20426;-74
2022/07/26 11:26:12;;;;;;;5.10;1.37;;;26.00;99.90;;;;;;4993146;28;20422;-74
2022/07/26 11:28:59;;;;;;;3.07;1.37;;;26.10;99.90;;;;;;4993087;28;20430;-73
2022/07/26 11:31:33;;;;;;;2.33;1.50;;;26.30;99.90;;;;;;4994970;28;20422;-73
2022/07/26 11:33:59;;;;;;;1.17;1.00;;;26.10;99.90;;;;;;4994822;28;20468;-74
2022/07/26 11:36:39;;;;;;;1.47;1.10;;;26.20;99.90;;;;;;4994499;28;20813;-75
2022/07/26 11:39:12;;;;;;;3.40;1.67;;;25.70;99.90;;;;;;4990120;28;20199;-74
2022/07/26 11:41:38;;;;;;;1.50;1.03;;;25.00;99.90;;;;;;4995626;28;20421;-74
2022/07/26 11:44:04;;;;;;;3.30;1.20;;;25.10;99.90;;;;;;4997018;28;20428;-74
2022/07/26 11:46:35;;;;;;;1.20;1.10;;;25.00;99.90;;;;;;4997590;28;20416;-74
2022/07/26 11:49:04;;;;;;;2.10;1.10;;;25.00;99.90;;;;;;4996176;28;20478;-74
2022/07/26 11:51:31;;;;;;;3.73;1.77;;;25.50;99.90;;;;;;4994608;28;20414;-74
2022/07/26 11:53:59;;;;;;;1.93;1.30;;;25.30;99.90;;;;;;4994601;28;20520;-73
2022/07/26 11:56:27;;;;;;;1.60;1.50;;;24.60;99.90;;;;;;4995314;28;20446;-73
2022/07/26 11:58:55;;;;;;;2.27;1.60;;;24.70;99.90;;;;;;5002361;28;20431;-73
2022/07/26 12:01:22;;;;;;;1.77;1.40;;;24.90;99.90;;;;;;4995047;28;20414;-74
2022/07/26 12:03:53;;;;;;;1.60;1.30;;;25.30;99.90;;;;;;4994172;28;20503;-74
2022/07/26 12:06:21;;;;;;;3.83;1.10;;;25.30;99.90;;;;;;4994074;28;20421;-74
2022/07/26 12:08:50;;;;;;;6.03;1.77;;;25.30;99.90;;;;;;4993982;28;21018;-74
2022/07/26 12:11:17;;;;;;;1.23;1.13;;;24.90;99.90;;;;;;4994012;28;20425;-73
2022/07/26 12:14:00;;;;;;;2.10;1.47;;;24.80;99.90;;;;;;4993989;28;20516;-73
2022/07/26 12:16:35;;;;;;;2.40;1.60;;;24.20;99.90;;;;;;4993504;28;20412;-73
2022/07/26 12:19:00;;;;;;;1.50;1.33;;;24.20;99.90;;;;;;4993703;28;20434;-74
2022/07/26 12:21:45;;;;;;;2.27;1.87;;;24.20;99.90;;;;;;4993832;28;20435;-73
2022/07/26 12:24:32;;;;;;;5.57;4.13;;;24.10;99.90;;;;;;4980175;28;20654;-73
2022/07/26 12:27:23;;;;;;;5.47;2.80;;;23.70;99.90;;;;;;4973957;28;20426;-74
2022/07/26 12:30:01;;;;;;;17.60;6.10;;;23.20;99.90;;;;;;4973752;28;20462;-73
2022/07/26 12:32:31;;;;;;;4.50;2.80;;;22.30;99.90;;;;;;4974250;28;20498;-73
2022/07/26 12:35:02;;;;;;;7.13;2.10;;;21.70;99.90;;;;;;4974815;28;20533;-73
2022/07/26 12:37:29;;;;;;;8.13;2.10;;;21.40;99.90;;;;;;4974651;28;20410;-73
2022/07/26 12:40:08;;;;;;;5.40;2.33;;;21.30;99.90;;;;;;4974263;28;20432;-73
2022/07/26 12:42:39;;;;;;;1.90;1.80;;;20.70;99.90;;;;;;4974201;28;20404;-73
2022/07/26 12:45:08;;;;;;;2.20;2.00;;;20.50;99.90;;;;;;4973945;28;20408;-73
2022/07/26 12:47:35;;;;;;;2.20;2.00;;;20.10;99.90;;;;;;4974338;28;20450;-73